createdAt,value
2023-12-23T00:01:14.340Z,5.07
2023-12-23T00:03:43.917Z,5.09
2023-12-23T00:06:16.630Z,4.71
2023-12-23T00:08:46.256Z,4.92
2023-12-23T00:11:15.807Z,5.05
2023-12-23T00:13:47.988Z,5.01
2023-12-23T00:16:19.519Z,5.16
2023-12-23T00:18:53.623Z,4.95
2023-12-23T00:21:23.684Z,5.11
2023-12-23T00:23:59.102Z,4.88
2023-12-23T00:26:53.409Z,4.72
2023-12-23T00:29:22.898Z,4.70
2023-12-23T00:31:55.853Z,4.55
2023-12-23T00:34:44.457Z,4.38
2023-12-23T00:40:13.202Z,4.68
2023-12-23T00:40:31.791Z,4.35
2023-12-23T00:42:44.560Z,4.82
2023-12-23T00:45:14.831Z,4.89
2023-12-23T00:47:48.405Z,4.80
2023-12-23T00:50:19.851Z,4.85
2023-12-23T00:52:54.183Z,4.86
2023-12-23T00:55:44.003Z,4.81
2023-12-23T00:58:16.471Z,4.70
2023-12-23T01:00:46.101Z,4.56
2023-12-23T01:03:15.503Z,4.48
2023-12-23T01:05:44.861Z,4.65
2023-12-23T01:08:16.497Z,4.59
2023-12-23T01:10:46.045Z,4.49
2023-12-23T01:13:20.752Z,4.60
2023-12-23T01:15:53.661Z,4.36
2023-12-23T01:18:23.326Z,4.36
2023-12-23T01:21:16.653Z,3.94
2023-12-23T01:23:46.110Z,4.03
2023-12-23T01:26:18.759Z,4.06
2023-12-23T01:28:49.170Z,4.01
2023-12-23T01:31:23.367Z,3.68
2023-12-23T01:33:54.367Z,3.91
2023-12-23T01:36:24.198Z,4.23
2023-12-23T01:38:53.959Z,4.10
2023-12-23T01:41:25.473Z,3.89
2023-12-23T01:44:00.527Z,4.21
2023-12-23T01:46:32.260Z,4.43
2023-12-23T01:49:05.706Z,4.57
2023-12-23T01:51:59.174Z,4.56
2023-12-23T01:54:58.806Z,4.12
2023-12-23T01:57:48.863Z,4.40
2023-12-23T02:00:20.174Z,4.48
2023-12-23T02:02:54.462Z,4.36
2023-12-23T02:05:26.165Z,4.27
2023-12-23T02:07:55.928Z,4.06
2023-12-23T02:10:26.177Z,4.05
2023-12-23T02:13:48.236Z,3.84
2023-12-23T02:16:37.859Z,4.12
2023-12-23T02:19:07.623Z,4.13
2023-12-23T02:21:41.393Z,3.86
2023-12-23T02:24:10.719Z,3.92
2023-12-23T02:26:44.444Z,4.17
2023-12-23T02:29:18.452Z,3.96
2023-12-23T02:31:49.198Z,4.09
2023-12-23T02:34:21.529Z,4.03
2023-12-23T02:36:51.852Z,4.29
2023-12-23T02:39:25.618Z,4.28
2023-12-23T02:42:17.368Z,4.29
2023-12-23T02:44:47.267Z,4.30
2023-12-23T02:47:16.948Z,4.25
2023-12-23T02:49:49.524Z,4.27
2023-12-23T02:52:19.297Z,4.27
2023-12-23T02:54:51.375Z,4.25
2023-12-23T02:57:24.907Z,4.28
2023-12-23T02:59:58.291Z,4.21
2023-12-23T03:02:48.088Z,4.10
2023-12-23T03:05:17.707Z,3.70
2023-12-23T03:07:50.394Z,3.54
2023-12-23T03:10:19.957Z,3.51
2023-12-23T03:12:56.511Z,3.83
2023-12-23T03:15:28.702Z,3.82
2023-12-23T03:18:00.791Z,3.51
2023-12-23T03:20:55.899Z,3.83
2023-12-23T03:23:45.464Z,3.90
2023-12-23T03:26:14.886Z,4.03
2023-12-23T03:28:46.957Z,4.06
2023-12-23T03:31:16.371Z,4.03
2023-12-23T03:33:46.016Z,3.93
2023-12-23T03:36:20.426Z,3.90
2023-12-23T03:38:53.135Z,3.94
2023-12-23T03:41:25.007Z,3.89
2023-12-23T03:43:57.198Z,3.86
2023-12-23T03:46:46.749Z,3.83
2023-12-23T03:49:21.547Z,3.83
2023-12-23T03:51:53.952Z,3.71
2023-12-23T03:54:26.594Z,3.72
2023-12-23T03:57:17.598Z,3.39
2023-12-23T03:59:47.768Z,3.65
2023-12-23T04:02:19.055Z,3.70
2023-12-23T04:04:48.923Z,3.76
2023-12-23T04:07:19.863Z,3.78
2023-12-23T04:09:55.382Z,3.74
2023-12-23T04:12:24.936Z,3.76
2023-12-23T04:14:57.293Z,3.87
2023-12-23T04:17:30.755Z,3.91
2023-12-23T04:20:01.997Z,3.93
2023-12-23T04:22:35.093Z,3.77
2023-12-23T04:25:27.959Z,3.96
2023-12-23T04:27:57.855Z,3.97
2023-12-23T04:30:31.197Z,3.78
2023-12-23T04:33:01.616Z,3.68
2023-12-23T04:35:32.462Z,3.73
2023-12-23T04:38:03.042Z,3.66
2023-12-23T04:40:35.112Z,3.81
2023-12-23T04:43:22.204Z,3.74
2023-12-23T04:45:56.367Z,3.76
2023-12-23T04:48:59.911Z,3.90
2023-12-23T04:51:26.553Z,4.02
2023-12-23T04:53:57.279Z,4.12
2023-12-23T04:56:29.750Z,4.10
2023-12-23T04:58:59.039Z,4.06
2023-12-23T05:01:29.405Z,4.03
2023-12-23T05:04:04.685Z,4.00
2023-12-23T05:06:52.477Z,3.96
2023-12-23T05:09:22.062Z,3.93
2023-12-23T05:11:54.351Z,3.97
2023-12-23T05:14:23.910Z,3.92
2023-12-23T05:16:59.577Z,4.01
2023-12-23T05:19:29.888Z,3.82
2023-12-23T05:22:01.504Z,3.98
2023-12-23T05:24:31.007Z,4.07
2023-12-23T05:27:02.991Z,4.07
2023-12-23T05:29:34.316Z,4.14
2023-12-23T05:32:24.536Z,4.25
2023-12-23T05:35:06.008Z,4.25
2023-12-23T05:37:36.582Z,4.23
2023-12-23T05:40:07.548Z,4.21
2023-12-23T05:42:37.069Z,4.19
2023-12-23T05:45:07.859Z,4.15
2023-12-23T05:47:42.746Z,4.15
2023-12-23T05:50:29.767Z,4.12
2023-12-23T05:52:59.612Z,4.08
2023-12-23T05:55:32.734Z,4.09
2023-12-23T05:58:05.846Z,4.12
2023-12-23T06:00:36.246Z,4.08
2023-12-23T06:03:09.260Z,4.08
2023-12-23T06:05:40.064Z,3.93
2023-12-23T06:08:10.975Z,3.80
2023-12-23T06:10:50.349Z,3.43
2023-12-23T06:13:37.681Z,3.71
2023-12-23T06:16:10.566Z,3.92
2023-12-23T06:18:40.188Z,3.95
2023-12-23T06:21:13.304Z,3.99
2023-12-23T06:24:00.588Z,3.94
2023-12-23T06:26:32.966Z,3.95
2023-12-23T06:29:08.952Z,3.95
2023-12-23T06:31:41.318Z,3.89
2023-12-23T06:34:31.345Z,3.85
2023-12-23T06:37:01.367Z,3.86
2023-12-23T06:39:37.116Z,3.82
2023-12-23T06:42:06.581Z,3.76
2023-12-23T06:44:36.633Z,3.66
2023-12-23T06:47:08.785Z,3.56
2023-12-23T06:49:46.587Z,3.48
2023-12-23T06:52:36.634Z,3.45
2023-12-23T06:55:10.246Z,3.43
2023-12-23T06:57:43.211Z,3.50
2023-12-23T07:00:29.386Z,3.54
2023-12-23T07:03:01.872Z,3.57
2023-12-23T07:05:31.346Z,3.62
2023-12-23T07:08:35.501Z,3.65
2023-12-23T07:11:23.909Z,3.54
2023-12-23T07:13:56.490Z,3.62
2023-12-23T07:16:26.232Z,3.69
2023-12-23T07:19:04.365Z,3.76
2023-12-23T07:21:36.603Z,3.79
2023-12-23T07:24:06.407Z,3.81
2023-12-23T07:27:04.911Z,3.45
2023-12-23T07:29:34.407Z,3.03
2023-12-23T07:32:27.456Z,2.78
2023-12-23T07:35:00.258Z,3.08
2023-12-23T07:37:50.657Z,3.32
2023-12-23T07:40:22.834Z,3.40
2023-12-23T07:42:54.140Z,3.42
2023-12-23T07:45:29.584Z,3.48
2023-12-23T07:47:59.458Z,3.44
2023-12-23T07:50:56.770Z,3.29
2023-12-23T07:53:46.285Z,2.80
2023-12-23T07:56:16.940Z,3.08
2023-12-23T07:59:12.414Z,3.21
2023-12-23T08:01:48.297Z,3.33
2023-12-23T08:04:23.832Z,3.03
2023-12-23T08:06:54.645Z,2.65
2023-12-23T08:09:24.731Z,2.80
2023-12-23T08:11:54.616Z,2.93
2023-12-23T08:14:24.211Z,2.79
2023-12-23T08:17:13.638Z,3.03
2023-12-23T08:19:46.041Z,3.06
2023-12-23T08:22:15.360Z,3.08
2023-12-23T08:24:48.537Z,3.16
2023-12-23T08:27:20.079Z,3.16
2023-12-23T08:29:56.988Z,3.20
2023-12-23T08:33:06.952Z,3.03
2023-12-23T08:35:42.962Z,2.92
2023-12-23T08:38:15.282Z,2.92
2023-12-23T08:40:46.379Z,2.74
2023-12-23T08:43:16.445Z,2.87
2023-12-23T08:45:46.429Z,2.87
2023-12-23T08:48:16.540Z,2.90
2023-12-23T08:50:49.325Z,2.49
2023-12-23T08:53:24.184Z,2.75
2023-12-23T08:55:55.445Z,2.57
2023-12-23T08:58:26.826Z,2.66
2023-12-23T09:00:56.341Z,2.61
2023-12-23T09:03:25.919Z,2.10
2023-12-23T09:05:55.841Z,1.78
2023-12-23T09:08:26.343Z,1.62
2023-12-23T09:10:58.196Z,1.34
2023-12-23T09:13:29.760Z,1.73
2023-12-23T09:16:03.142Z,1.79
2023-12-23T09:18:33.181Z,1.93
2023-12-23T09:21:03.956Z,1.92
2023-12-23T09:23:36.608Z,1.63
2023-12-23T09:26:26.987Z,1.66
2023-12-23T09:28:59.429Z,1.83
2023-12-23T09:31:28.867Z,1.73
2023-12-23T09:33:59.271Z,1.24
2023-12-23T09:36:29.770Z,1.25
2023-12-23T09:39:01.476Z,1.03
2023-12-23T09:41:34.406Z,1.14
2023-12-23T09:44:04.762Z,1.16
2023-12-23T09:46:37.856Z,1.07
2023-12-23T09:49:08.766Z,0.85
2023-12-23T09:51:38.259Z,1.00
2023-12-23T09:54:11.768Z,1.28
2023-12-23T09:56:48.730Z,1.23
2023-12-23T09:59:36.889Z,1.10
2023-12-23T10:02:06.530Z,1.07
2023-12-23T10:04:36.698Z,1.02
2023-12-23T10:07:06.225Z,0.90
2023-12-23T10:09:38.079Z,0.76
2023-12-23T10:12:10.728Z,0.61
2023-12-23T10:14:44.178Z,0.80
2023-12-23T10:17:37.633Z,1.15
2023-12-23T10:20:09.422Z,0.68
2023-12-23T10:22:38.936Z,0.81
2023-12-23T10:25:10.317Z,0.43
2023-12-23T10:27:44.773Z,0.34
2023-12-23T10:30:16.782Z,0.25
2023-12-23T10:32:50.810Z,0.40
2023-12-23T10:35:27.488Z,0.41
2023-12-23T10:38:16.837Z,0.62
2023-12-23T10:41:09.828Z,0.80
2023-12-23T10:43:40.252Z,0.75
2023-12-23T10:46:10.455Z,0.54
2023-12-23T10:48:44.976Z,0.40
2023-12-23T10:51:15.220Z,0.29
2023-12-23T10:53:44.831Z,0.42
2023-12-23T10:56:16.755Z,0.51
2023-12-23T10:59:11.361Z,0.35
2023-12-23T11:01:44.985Z,0.24
2023-12-23T11:04:15.269Z,0.29
2023-12-23T11:06:48.362Z,0.60
2023-12-23T11:09:37.306Z,0.55
2023-12-23T11:12:08.381Z,0.55
2023-12-23T11:14:39.817Z,0.59
2023-12-23T11:17:39.241Z,0.35
2023-12-23T11:20:31.234Z,0.49
2023-12-23T11:23:30.499Z,0.73
2023-12-23T11:26:00.297Z,0.80
2023-12-23T11:28:33.144Z,0.84
2023-12-23T11:31:06.518Z,0.74
2023-12-23T11:33:52.088Z,0.72
2023-12-23T11:36:26.072Z,0.74
2023-12-23T11:38:59.034Z,0.35
2023-12-23T11:41:28.858Z,0.32
2023-12-23T11:44:04.916Z,0.51
2023-12-23T11:46:35.436Z,0.70
2023-12-23T11:49:05.034Z,0.34
2023-12-23T11:51:36.225Z,0.07
2023-12-23T11:54:06.012Z,0.04
2023-12-23T11:56:35.810Z,0.18
2023-12-23T11:59:11.570Z,0.24
2023-12-23T12:02:05.052Z,0.25
2023-12-23T12:04:35.488Z,0.49
2023-12-23T12:07:05.065Z,0.57
2023-12-23T12:09:37.934Z,0.38
2023-12-23T12:12:30.370Z,0.23
2023-12-23T12:14:59.898Z,0.20
2023-12-23T12:17:31.800Z,0.26
2023-12-23T12:20:03.589Z,0.23
2023-12-23T12:25:30.976Z,0.23
2023-12-23T12:28:02.713Z,0.12
2023-12-23T12:30:35.585Z,-0.13
2023-12-23T12:33:11.926Z,0.28
2023-12-23T12:35:55.361Z,0.30
2023-12-23T12:38:31.716Z,0.46
2023-12-23T12:41:02.991Z,0.35
2023-12-23T12:43:38.386Z,0.36
2023-12-23T12:46:08.643Z,0.13
2023-12-23T12:48:39.677Z,-0.06
2023-12-23T12:51:11.919Z,0.05
2023-12-23T12:53:43.712Z,0.18
2023-12-23T12:56:13.851Z,0.25
2023-12-23T12:58:47.099Z,0.33
2023-12-23T13:01:33.460Z,0.75
2023-12-23T13:04:06.810Z,0.53
2023-12-23T13:06:37.160Z,0.12
2023-12-23T13:09:07.178Z,0.47
2023-12-23T13:11:36.974Z,0.41
2023-12-23T13:14:08.850Z,0.38
2023-12-23T13:16:38.581Z,0.51
2023-12-23T13:19:10.250Z,0.41
2023-12-23T13:21:42.914Z,0.61
2023-12-23T13:24:12.266Z,0.72
2023-12-23T13:26:44.900Z,0.65
2023-12-23T13:29:17.308Z,0.51
2023-12-23T13:31:46.969Z,0.61
2023-12-23T13:34:16.332Z,0.90
2023-12-23T13:36:49.899Z,1.05
2023-12-23T13:39:21.876Z,0.81
2023-12-23T13:41:55.300Z,0.71
2023-12-23T13:44:27.939Z,0.90
2023-12-23T13:49:47.546Z,0.66
2023-12-23T13:52:19.067Z,0.90
2023-12-23T13:54:48.364Z,0.96
2023-12-23T13:57:19.954Z,0.70
2023-12-23T13:59:52.367Z,0.80
2023-12-23T14:02:21.695Z,0.62
2023-12-23T14:04:53.285Z,0.54
2023-12-23T14:07:26.312Z,0.43
2023-12-23T14:09:59.016Z,0.66
2023-12-23T14:12:28.210Z,0.92
2023-12-23T14:14:57.886Z,0.85
2023-12-23T14:17:31.243Z,0.93
2023-12-23T14:20:00.682Z,0.60
2023-12-23T14:22:29.950Z,0.49
2023-12-23T14:25:03.525Z,0.65
2023-12-23T14:27:32.968Z,0.56
2023-12-23T14:30:03.119Z,0.49
2023-12-23T14:32:33.170Z,0.36
2023-12-23T14:35:05.269Z,0.59
2023-12-23T14:37:42.281Z,0.60
2023-12-23T14:40:32.747Z,0.43
2023-12-23T14:43:05.226Z,0.25
2023-12-23T14:45:34.498Z,0.31
2023-12-23T14:48:04.352Z,0.46
2023-12-23T14:50:36.495Z,0.51
2023-12-23T14:53:05.980Z,0.59
2023-12-23T14:55:40.914Z,0.75
2023-12-23T14:58:14.027Z,0.55
2023-12-23T15:00:43.507Z,0.49
2023-12-23T15:03:12.803Z,0.44
2023-12-23T15:05:46.229Z,0.59
2023-12-23T15:08:15.836Z,0.80
2023-12-23T15:10:45.117Z,0.93
2023-12-23T15:13:19.983Z,0.94
2023-12-23T15:15:53.015Z,0.79
2023-12-23T15:18:23.617Z,0.74
2023-12-23T15:21:19.781Z,0.81
2023-12-23T15:23:47.590Z,1.01
2023-12-23T15:26:17.051Z,1.06
2023-12-23T15:28:46.298Z,1.09
2023-12-23T15:31:18.163Z,0.90
2023-12-23T15:33:47.990Z,0.97
2023-12-23T15:36:17.972Z,1.20
2023-12-23T15:38:49.594Z,1.32
2023-12-23T15:41:18.954Z,1.50
2023-12-23T15:43:53.615Z,1.48
2023-12-23T15:46:25.049Z,1.45
2023-12-23T15:48:56.762Z,1.43
2023-12-23T15:51:26.511Z,1.60
2023-12-23T15:53:56.744Z,1.59
2023-12-23T15:56:27.127Z,1.55
2023-12-23T15:58:58.880Z,1.50
2023-12-23T16:01:31.060Z,1.47
2023-12-23T16:04:00.564Z,1.60
2023-12-23T16:06:31.565Z,1.59
2023-12-23T16:09:00.934Z,1.39
2023-12-23T16:11:35.558Z,1.50
2023-12-23T16:14:07.331Z,1.64
2023-12-23T16:16:37.410Z,1.67
2023-12-23T16:19:09.271Z,1.85
2023-12-23T16:21:38.700Z,1.73
2023-12-23T16:24:08.556Z,2.12
2023-12-23T16:26:40.716Z,2.04
2023-12-23T16:29:10.247Z,1.85
2023-12-23T16:31:39.479Z,1.73
2023-12-23T16:34:13.082Z,1.75
2023-12-23T16:36:50.578Z,1.58
2023-12-23T16:39:41.669Z,1.49
2023-12-23T16:42:16.120Z,1.52
2023-12-23T16:44:45.547Z,1.46
2023-12-23T16:47:15.086Z,1.42
2023-12-23T16:49:44.603Z,1.32
2023-12-23T16:52:14.488Z,1.32
2023-12-23T16:54:44.043Z,1.43
2023-12-23T16:57:16.733Z,1.47
2023-12-23T16:59:46.007Z,1.83
2023-12-23T17:02:20.685Z,2.04
2023-12-23T17:05:12.254Z,1.73
2023-12-23T17:07:41.448Z,1.58
2023-12-23T17:10:13.649Z,1.57
2023-12-23T17:12:45.877Z,1.44
2023-12-23T17:15:18.104Z,1.34
2023-12-23T17:17:47.512Z,1.36
2023-12-23T17:20:17.307Z,1.47
2023-12-23T17:22:55.903Z,1.95
2023-12-23T17:25:45.805Z,2.21
2023-12-23T17:28:17.436Z,2.23
2023-12-23T17:30:47.162Z,2.24
2023-12-23T17:33:16.612Z,2.40
2023-12-23T17:35:50.362Z,2.41
2023-12-23T17:38:27.229Z,2.38
2023-12-23T17:41:17.000Z,2.32
2023-12-23T17:43:48.211Z,2.11
2023-12-23T17:46:17.671Z,1.88
2023-12-23T17:48:49.041Z,1.78
2023-12-23T17:51:21.055Z,1.79
2023-12-23T17:53:50.346Z,1.67
2023-12-23T17:56:22.861Z,1.53
2023-12-23T17:59:17.086Z,1.58
2023-12-23T18:01:49.093Z,1.48
2023-12-23T18:04:20.662Z,1.54
2023-12-23T18:06:50.182Z,1.56
2023-12-23T18:09:22.649Z,1.65
2023-12-23T18:11:51.931Z,1.75
2023-12-23T18:14:29.510Z,1.71
2023-12-23T18:17:02.292Z,1.67
2023-12-23T18:19:34.090Z,1.82
2023-12-23T18:22:03.554Z,2.18
2023-12-23T18:24:33.684Z,2.30
2023-12-23T18:27:03.435Z,2.24
2023-12-23T18:29:33.067Z,2.44
2023-12-23T18:32:05.808Z,2.50
2023-12-23T18:34:35.494Z,2.52
2023-12-23T18:37:09.446Z,2.72
2023-12-23T18:40:00.183Z,2.80
2023-12-23T18:42:29.646Z,3.15
2023-12-23T18:45:01.016Z,3.29
2023-12-23T18:47:30.705Z,3.39
2023-12-23T18:50:00.149Z,3.62
2023-12-23T18:52:35.242Z,3.67
2023-12-23T18:55:04.734Z,3.73
2023-12-23T18:57:34.428Z,3.67
2023-12-23T19:00:14.140Z,3.87
2023-12-23T19:03:10.144Z,3.98
2023-12-23T19:05:40.246Z,3.99
2023-12-23T19:08:31.576Z,4.34
2023-12-23T19:11:01.695Z,4.27
2023-12-23T19:13:40.225Z,4.35
2023-12-23T19:19:01.586Z,4.58
2023-12-23T19:21:32.842Z,4.48
2023-12-23T19:24:05.380Z,4.46
2023-12-23T19:27:02.515Z,4.62
2023-12-23T19:29:32.944Z,4.58
2023-12-23T19:32:03.842Z,4.65
2023-12-23T19:34:38.333Z,4.55
2023-12-23T19:37:31.620Z,4.63
2023-12-23T19:40:09.745Z,4.65
2023-12-23T19:42:51.810Z,4.33
2023-12-23T19:45:22.057Z,4.46
2023-12-23T19:47:53.879Z,4.59
2023-12-23T19:50:24.018Z,4.54
2023-12-23T19:52:59.401Z,4.62
2023-12-23T19:55:28.697Z,4.90
2023-12-23T19:57:58.154Z,4.84
2023-12-23T20:00:29.573Z,4.73
2023-12-23T20:03:01.820Z,4.81
2023-12-23T20:05:36.112Z,4.91
2023-12-23T20:08:06.637Z,4.67
2023-12-23T20:10:36.518Z,4.68
2023-12-23T20:13:10.544Z,4.99
2023-12-23T20:15:44.197Z,5.16
2023-12-23T20:18:33.968Z,5.58
2023-12-23T20:21:05.372Z,5.88
2023-12-23T20:23:34.947Z,5.90
2023-12-23T20:26:04.544Z,6.43
2023-12-23T20:28:33.952Z,6.52
2023-12-23T20:31:08.849Z,6.71
2023-12-23T20:33:38.144Z,6.77
2023-12-23T20:36:10.611Z,7.16
2023-12-23T20:38:42.157Z,7.34
2023-12-23T20:41:14.538Z,7.17
2023-12-23T20:43:58.352Z,6.91
2023-12-23T20:46:39.190Z,6.98
2023-12-23T20:49:11.588Z,6.97
2023-12-23T20:51:46.857Z,7.24
2023-12-23T20:54:36.475Z,8.00
2023-12-23T20:57:10.085Z,8.56
2023-12-23T20:59:39.525Z,8.87
2023-12-23T21:02:09.299Z,9.14
2023-12-23T21:04:41.161Z,9.45
2023-12-23T21:07:13.019Z,9.65
2023-12-23T21:09:43.710Z,9.30
2023-12-23T21:12:15.060Z,9.28
2023-12-23T21:14:50.611Z,9.25
2023-12-23T21:17:20.163Z,9.27
2023-12-23T21:19:52.823Z,9.36
2023-12-23T21:22:23.320Z,10.20
2023-12-23T21:25:15.161Z,10.51
2023-12-23T21:27:46.778Z,11.30
2023-12-23T21:30:20.598Z,11.72
2023-12-23T21:33:07.398Z,11.68
2023-12-23T21:35:39.872Z,12.15
2023-12-23T21:38:15.629Z,12.20
2023-12-23T21:41:15.240Z,11.87
2023-12-23T21:44:10.239Z,11.69
2023-12-23T21:46:39.513Z,11.31
2023-12-23T21:49:12.460Z,10.83
2023-12-23T21:55:00.274Z,11.61
2023-12-23T21:57:32.463Z,11.88
2023-12-23T22:00:07.400Z,12.07
2023-12-23T22:02:41.968Z,12.06
2023-12-23T22:06:13.051Z,12.28
2023-12-23T22:08:55.340Z,12.13
2023-12-23T22:11:49.465Z,12.11
2023-12-23T22:14:21.876Z,11.79
2023-12-23T22:19:42.368Z,11.07
2023-12-23T22:22:17.394Z,11.06
2023-12-23T22:24:46.740Z,10.80
2023-12-23T22:27:22.161Z,10.75
2023-12-23T22:29:54.927Z,10.61
2023-12-23T22:35:14.794Z,10.03
2023-12-23T22:35:36.229Z,10.40
2023-12-23T22:37:46.321Z,9.92
2023-12-23T22:40:16.961Z,9.85
2023-12-23T22:42:54.145Z,9.74
2023-12-23T22:45:44.597Z,9.55
2023-12-23T22:48:19.612Z,9.60
2023-12-23T22:51:12.042Z,9.46
2023-12-23T22:53:46.660Z,9.47
2023-12-23T22:56:16.199Z,9.29
2023-12-23T22:58:45.673Z,9.42
2023-12-23T23:01:18.425Z,9.67
2023-12-23T23:03:53.916Z,9.86
2023-12-23T23:06:43.992Z,10.38
2023-12-23T23:09:14.208Z,10.95
2023-12-23T23:11:46.447Z,11.26
2023-12-23T23:14:19.027Z,10.61
2023-12-23T23:16:51.698Z,11.22
2023-12-23T23:19:23.730Z,11.10
2023-12-23T23:22:17.443Z,10.58
2023-12-23T23:24:47.061Z,10.58
2023-12-23T23:27:16.521Z,10.38
2023-12-23T23:29:53.958Z,10.31
2023-12-23T23:32:40.501Z,10.24
2023-12-23T23:35:12.177Z,9.90
2023-12-23T23:37:46.074Z,9.77
2023-12-23T23:40:20.374Z,9.59
2023-12-23T23:43:12.020Z,9.31
2023-12-23T23:46:06.086Z,9.00
2023-12-23T23:48:35.600Z,8.85
2023-12-23T23:51:11.001Z,8.65
2023-12-23T23:53:41.337Z,8.41
2023-12-23T23:56:11.322Z,8.28
2023-12-23T23:58:41.143Z,8.11
